createdAt,value
2022-10-30T00:04:34.859Z,96142.97
2022-10-30T00:09:37.557Z,96149.16
2022-10-30T00:14:42.567Z,96143.47
2022-10-30T00:19:45.163Z,96144.56
2022-10-30T00:24:47.788Z,96149.97
2022-10-30T00:29:57.555Z,96149.97
2022-10-30T00:35:00.139Z,96162.34
2022-10-30T00:40:02.736Z,96148.88
2022-10-30T00:45:05.915Z,96137.31
2022-10-30T00:50:09.021Z,96157.50
2022-10-30T00:55:11.679Z,96142.97
2022-10-30T01:00:14.884Z,96149.69
2022-10-30T01:05:27.489Z,96141.63
2022-10-30T01:10:30.243Z,96132.75
2022-10-30T01:15:32.900Z,96134.63
2022-10-30T01:20:35.559Z,96145.94
2022-10-30T01:25:38.177Z,96142.97
2022-10-30T01:30:40.810Z,96143.75
2022-10-30T01:35:43.379Z,96145.09
2022-10-30T01:40:46.153Z,96149.66
2022-10-30T01:45:48.844Z,96152.09
2022-10-30T01:50:51.420Z,96142.16
2022-10-30T01:55:54.098Z,96152.34
2022-10-30T02:00:57.028Z,96151.31
2022-10-30T02:05:59.698Z,96152.91
2022-10-30T02:11:02.352Z,96155.31
2022-10-30T02:16:05.020Z,96154.22
2022-10-30T02:21:09.103Z,96150.44
2022-10-30T02:26:11.792Z,96150.16
2022-10-30T02:31:14.454Z,96143.16
2022-10-30T02:36:17.133Z,96146.88
2022-10-30T02:41:19.809Z,96150.09
2022-10-30T02:46:22.491Z,96148.47
2022-10-30T02:51:27.902Z,96152.22
2022-10-30T02:56:30.645Z,96142.81
2022-10-30T03:01:33.460Z,96146.03
2022-10-30T03:06:36.135Z,96149.22
2022-10-30T03:11:38.770Z,96152.72
2022-10-30T03:16:41.315Z,96143.66
2022-10-30T03:21:43.977Z,96139.06
2022-10-30T03:26:46.620Z,96139.59
2022-10-30T03:31:49.328Z,96140.66
2022-10-30T03:36:52.028Z,96138.75
2022-10-30T03:41:56.253Z,96132.34
2022-10-30T03:46:59.262Z,96126.41
2022-10-30T03:52:01.925Z,96130.66
2022-10-30T03:57:04.520Z,96147.91
2022-10-30T04:02:07.283Z,96153.75
2022-10-30T04:07:09.998Z,96153.16
2022-10-30T04:12:12.543Z,96152.13
2022-10-30T04:17:15.142Z,96151.34
2022-10-30T04:22:17.868Z,96151.59
2022-10-30T04:27:21.032Z,96152.13
2022-10-30T04:32:24.081Z,96149.63
2022-10-30T04:37:26.764Z,96147.72
2022-10-30T04:42:29.488Z,96146.69
2022-10-30T04:52:35.790Z,96146.09
2022-10-30T04:57:38.521Z,96136.38
2022-10-30T05:02:41.377Z,96133.16
2022-10-30T05:07:44.217Z,96124.06
2022-10-30T05:12:47.013Z,96126.19
2022-10-30T05:17:49.734Z,96122.94
2022-10-30T05:22:52.434Z,96119.72
2022-10-30T05:27:55.394Z,96118.13
2022-10-30T05:32:58.590Z,96118.09
2022-10-30T05:38:01.793Z,96122.06
2022-10-30T05:43:04.502Z,96110.78
2022-10-30T05:48:07.201Z,96117.56
2022-10-30T05:53:09.898Z,96117.06
2022-10-30T05:58:12.544Z,96112.06
2022-10-30T06:03:15.229Z,96102.69
2022-10-30T06:08:17.797Z,96102.50
2022-10-30T06:13:20.516Z,96094.75
2022-10-30T06:18:23.187Z,96101.78
2022-10-30T06:23:25.775Z,96104.19
2022-10-30T06:28:28.405Z,96095.88
2022-10-30T06:33:31.123Z,96098.03
2022-10-30T06:38:33.850Z,96094.25
2022-10-30T06:43:36.628Z,96088.59
2022-10-30T06:48:40.684Z,96097.97
2022-10-30T06:53:43.267Z,96091.78
2022-10-30T06:58:45.921Z,96086.91
2022-10-30T07:03:48.528Z,96099.47
2022-10-30T07:08:51.219Z,96101.53
2022-10-30T07:13:54.228Z,96091.41
2022-10-30T07:19:00.664Z,96094.25
2022-10-30T07:24:07.864Z,96097.91
2022-10-30T07:29:10.568Z,96104.72
2022-10-30T07:34:13.303Z,96101.63
2022-10-30T07:39:16.025Z,96109.34
2022-10-30T07:44:18.775Z,96105.66
2022-10-30T07:49:21.456Z,96103.53
2022-10-30T07:54:24.155Z,96112.75
2022-10-30T07:59:26.770Z,96123.16
2022-10-30T08:04:29.484Z,96122.34
2022-10-30T08:09:34.183Z,96115.91
2022-10-30T08:14:36.899Z,96116.28
2022-10-30T08:19:39.600Z,96110.09
2022-10-30T08:24:42.341Z,96112.06
2022-10-30T08:29:45.002Z,96113.00
2022-10-30T08:34:47.680Z,96110.22
2022-10-30T08:39:50.321Z,96099.69
2022-10-30T08:44:53.587Z,96100.72
2022-10-30T08:49:56.189Z,96096.50
2022-10-30T08:54:58.869Z,96104.56
2022-10-30T09:00:01.421Z,96097.44
2022-10-30T09:10:07.070Z,96089.69
2022-10-30T09:15:09.805Z,96094.91
2022-10-30T09:20:12.571Z,96094.66
2022-10-30T09:25:15.239Z,96090.56
2022-10-30T09:30:18.246Z,96095.88
2022-10-30T09:35:20.842Z,96095.69
2022-10-30T09:40:23.649Z,96091.75
2022-10-30T09:45:29.668Z,96089.03
2022-10-30T09:50:37.190Z,96086.00
2022-10-30T09:55:42.433Z,96084.06
2022-10-30T10:00:45.581Z,96089.75
2022-10-30T10:05:48.289Z,96090.50
2022-10-30T10:10:51.072Z,96095.22
2022-10-30T10:15:53.680Z,96095.63
2022-10-30T10:20:56.732Z,96087.03
2022-10-30T10:25:59.436Z,96093.13
2022-10-30T10:31:02.540Z,96095.97
2022-10-30T10:36:06.285Z,96095.50
2022-10-30T10:41:09.359Z,96090.38
2022-10-30T10:46:12.074Z,96089.25
2022-10-30T10:51:14.664Z,96089.06
2022-10-30T10:56:17.407Z,96087.09
2022-10-30T11:01:20.301Z,96084.69
2022-10-30T11:06:23.016Z,96085.53
2022-10-30T11:11:25.581Z,96075.59
2022-10-30T11:16:28.167Z,96080.38
2022-10-30T11:21:30.840Z,96072.31
2022-10-30T11:26:33.433Z,96066.56
2022-10-30T11:31:38.151Z,96061.09
2022-10-30T11:36:40.944Z,96053.88
2022-10-30T11:41:43.579Z,96056.28
2022-10-30T11:46:46.678Z,96043.38
2022-10-30T11:51:50.579Z,96042.13
2022-10-30T11:56:54.199Z,96031.78
2022-10-30T12:01:56.899Z,96027.25
2022-10-30T12:06:59.628Z,96025.09
2022-10-30T12:12:06.661Z,96018.47
2022-10-30T12:17:09.507Z,96014.66
2022-10-30T12:22:12.158Z,96013.53
2022-10-30T12:27:19.718Z,96000.72
2022-10-30T12:32:25.133Z,96000.63
2022-10-30T12:37:27.801Z,96000.31
2022-10-30T12:42:30.623Z,95995.50
2022-10-30T12:47:33.266Z,95988.13
2022-10-30T12:52:36.288Z,95993.81
2022-10-30T12:57:38.851Z,95990.34
2022-10-30T13:02:41.549Z,95983.03
2022-10-30T13:07:44.330Z,95984.69
2022-10-30T13:12:46.962Z,95977.38
2022-10-30T13:17:49.683Z,95975.56
2022-10-30T13:22:52.436Z,95973.03
2022-10-30T13:27:55.154Z,95973.91
2022-10-30T13:32:58.211Z,95979.75
2022-10-30T13:38:01.624Z,95981.69
2022-10-30T13:43:04.545Z,95980.31
2022-10-30T13:48:07.281Z,95969.38
2022-10-30T13:53:10.522Z,95967.34
2022-10-30T13:58:13.120Z,95968.44
2022-10-30T14:03:15.787Z,95964.72
2022-10-30T14:08:18.497Z,95968.84
2022-10-30T14:13:21.117Z,95968.53
2022-10-30T14:18:23.739Z,95969.94
2022-10-30T14:23:26.365Z,95975.91
2022-10-30T14:28:28.956Z,95975.53
2022-10-30T14:33:31.551Z,95979.47
2022-10-30T14:38:34.243Z,95975.34
2022-10-30T14:43:36.907Z,95976.28
2022-10-30T14:48:39.668Z,95979.22
2022-10-30T14:53:42.419Z,95978.94
2022-10-30T14:58:45.152Z,95981.06
2022-10-30T15:03:47.791Z,95980.44
2022-10-30T15:08:50.385Z,95978.06
2022-10-30T15:13:53.009Z,95994.19
2022-10-30T15:18:55.819Z,95981.84
2022-10-30T15:23:58.479Z,95983.13
2022-10-30T15:29:01.210Z,95981.38
2022-10-30T15:34:03.807Z,95982.13
2022-10-30T15:39:06.472Z,95986.38
2022-10-30T15:44:09.491Z,95990.00
2022-10-30T15:49:12.093Z,95994.66
2022-10-30T15:54:15.335Z,96003.06
2022-10-30T15:59:17.938Z,95996.31
2022-10-30T16:04:27.120Z,96001.16
2022-10-30T16:09:29.872Z,95995.09
2022-10-30T16:14:32.967Z,95996.13
2022-10-30T16:19:35.663Z,96004.81
2022-10-30T16:24:38.389Z,95999.09
2022-10-30T16:29:41.071Z,95994.78
2022-10-30T16:34:43.761Z,95994.59
2022-10-30T16:39:46.823Z,96003.00
2022-10-30T16:44:49.522Z,96010.44
2022-10-30T16:49:52.149Z,96005.75
2022-10-30T16:54:54.845Z,96018.38
2022-10-30T16:59:57.472Z,96025.41
2022-10-30T17:05:00.147Z,96029.53
2022-10-30T17:10:03.425Z,96033.19
2022-10-30T17:15:06.182Z,96031.97
2022-10-30T17:20:08.802Z,96039.75
2022-10-30T17:25:11.950Z,96034.31
2022-10-30T17:30:14.517Z,96051.22
2022-10-30T17:35:17.170Z,96050.00
2022-10-30T17:40:20.378Z,96059.66
2022-10-30T17:45:23.260Z,96064.34
2022-10-30T17:50:30.873Z,96065.38
2022-10-30T17:55:33.567Z,96074.97
2022-10-30T18:00:36.151Z,96071.53
2022-10-30T18:05:38.842Z,96078.19
2022-10-30T18:10:41.857Z,96085.84
2022-10-30T18:15:44.434Z,96080.97
2022-10-30T18:20:47.462Z,96079.44
2022-10-30T18:25:50.800Z,96086.50
2022-10-30T18:30:53.370Z,96095.75
2022-10-30T18:35:57.462Z,96093.66
2022-10-30T18:41:00.095Z,96093.50
2022-10-30T18:46:02.719Z,96093.00
2022-10-30T18:51:05.348Z,96095.34
2022-10-30T18:56:07.905Z,96102.34
2022-10-30T19:01:12.249Z,96100.63
2022-10-30T19:06:15.213Z,96095.84
2022-10-30T19:11:23.944Z,96093.22
2022-10-30T19:16:28.579Z,96088.38
2022-10-30T19:21:33.507Z,96097.88
2022-10-30T19:26:36.237Z,96093.09
2022-10-30T19:31:38.901Z,96087.72
2022-10-30T19:36:41.593Z,96103.22
2022-10-30T19:41:44.256Z,96098.69
2022-10-30T19:46:46.926Z,96100.63
2022-10-30T19:51:50.448Z,96105.50
2022-10-30T19:56:53.171Z,96096.13
2022-10-30T20:01:56.009Z,96103.94
2022-10-30T20:07:02.443Z,96100.16
2022-10-30T20:12:06.120Z,96102.16
2022-10-30T20:17:08.796Z,96106.25
2022-10-30T20:22:11.629Z,96101.69
2022-10-30T20:27:14.818Z,96103.63
2022-10-30T20:32:17.558Z,96100.13
2022-10-30T20:37:21.320Z,96107.41
2022-10-30T20:42:24.147Z,96114.72
2022-10-30T20:47:26.808Z,96120.69
2022-10-30T20:52:29.492Z,96116.63
2022-10-30T20:57:32.315Z,96118.78
2022-10-30T21:02:35.394Z,96131.50
2022-10-30T21:07:38.052Z,96132.88
2022-10-30T21:12:40.781Z,96132.38
2022-10-30T21:17:43.442Z,96131.34
2022-10-30T21:22:46.195Z,96134.56
2022-10-30T21:27:48.804Z,96137.53
2022-10-30T21:32:51.383Z,96136.22
2022-10-30T21:37:54.487Z,96143.75
2022-10-30T21:42:59.817Z,96139.47
2022-10-30T21:48:05.805Z,96139.44
2022-10-30T21:53:08.421Z,96136.47
2022-10-30T21:58:11.112Z,96131.66
2022-10-30T22:03:13.819Z,96127.06
2022-10-30T22:08:16.504Z,96130.84
2022-10-30T22:13:25.904Z,96141.63
2022-10-30T22:18:28.608Z,96146.75
2022-10-30T22:23:31.263Z,96134.91
2022-10-30T22:28:33.965Z,96125.47
2022-10-30T22:33:36.640Z,96128.16
2022-10-30T22:38:39.366Z,96133.00
2022-10-30T22:43:42.138Z,96131.13
2022-10-30T22:48:44.859Z,96130.31
2022-10-30T22:53:47.580Z,96130.88
2022-10-30T22:58:50.243Z,96133.00
2022-10-30T23:03:52.993Z,96134.09
2022-10-30T23:08:55.660Z,96128.97
2022-10-30T23:13:58.257Z,96127.09
2022-10-30T23:19:06.092Z,96138.91
2022-10-30T23:24:08.741Z,96140.53
2022-10-30T23:29:11.436Z,96141.59
2022-10-30T23:34:14.083Z,96143.19
2022-10-30T23:39:17.076Z,96150.97
2022-10-30T23:44:20.353Z,96150.16
2022-10-30T23:49:22.993Z,96151.75
2022-10-30T23:54:25.672Z,96149.06
2022-10-30T23:59:28.313Z,96147.47
